createdAt,value
2017-12-20T00:00:01.562Z,43.57
2017-12-20T00:02:27.774Z,50.90
2017-12-20T00:04:53.968Z,45.43
2017-12-20T00:07:20.197Z,64.93
2017-12-20T00:09:46.383Z,47.50
2017-12-20T00:12:12.562Z,47.60
2017-12-20T00:14:38.794Z,68.50
2017-12-20T00:17:05.146Z,51.67
2017-12-20T00:19:31.582Z,50.40
2017-12-20T00:21:57.943Z,52.77
2017-12-20T00:24:24.120Z,54.27
2017-12-20T00:26:50.525Z,51.77
2017-12-20T00:29:16.815Z,40.63
2017-12-20T00:31:43.339Z,40.37
2017-12-20T00:34:09.771Z,57.73
2017-12-20T00:36:36.012Z,61.33
2017-12-20T00:39:02.422Z,57.50
2017-12-20T00:41:28.614Z,51.13
2017-12-20T00:43:54.837Z,51.47
2017-12-20T00:46:21.284Z,43.77
2017-12-20T00:48:47.554Z,50.87
2017-12-20T00:51:13.917Z,45.33
2017-12-20T00:53:40.101Z,55.40
2017-12-20T00:56:06.351Z,46.13
2017-12-20T00:58:32.671Z,57.63
2017-12-20T01:00:58.889Z,56.97
2017-12-20T01:03:25.073Z,52.50
2017-12-20T01:05:51.356Z,50.97
2017-12-20T01:08:17.551Z,52.63
2017-12-20T01:10:43.744Z,50.43
2017-12-20T01:13:10.193Z,48.03
2017-12-20T01:15:36.465Z,46.40
2017-12-20T01:18:02.691Z,57.53
2017-12-20T01:20:28.895Z,50.87
2017-12-20T01:22:55.150Z,52.23
2017-12-20T01:25:21.325Z,57.13
2017-12-20T01:27:47.575Z,49.30
2017-12-20T01:30:13.838Z,54.07
2017-12-20T01:32:40.033Z,54.83
2017-12-20T01:35:06.246Z,62.70
2017-12-20T01:37:32.440Z,57.40
2017-12-20T01:39:58.764Z,58.20
2017-12-20T01:42:24.985Z,49.97
2017-12-20T01:44:51.220Z,54.47
2017-12-20T01:47:17.439Z,56.47
2017-12-20T01:49:43.882Z,56.97
2017-12-20T01:52:10.082Z,60.03
2017-12-20T01:54:36.269Z,56.30
2017-12-20T01:57:02.489Z,58.77
2017-12-20T01:59:28.784Z,56.80
2017-12-20T02:01:55.011Z,54.83
2017-12-20T02:04:21.229Z,61.00
2017-12-20T02:06:47.481Z,59.57
2017-12-20T02:09:13.701Z,55.63
2017-12-20T02:11:40.350Z,55.03
2017-12-20T02:14:06.634Z,47.57
2017-12-20T02:16:32.825Z,47.53
2017-12-20T02:18:59.292Z,48.03
2017-12-20T02:21:25.676Z,44.50
2017-12-20T02:23:51.891Z,46.23
2017-12-20T02:26:18.117Z,52.30
2017-12-20T02:28:44.295Z,50.10
2017-12-20T02:31:10.473Z,51.37
2017-12-20T02:33:36.698Z,56.77
2017-12-20T02:36:02.877Z,53.40
2017-12-20T02:38:29.267Z,54.50
2017-12-20T02:40:55.485Z,68.60
2017-12-20T02:43:21.883Z,74.87
2017-12-20T02:45:48.156Z,62.77
2017-12-20T02:48:14.599Z,65.93
2017-12-20T02:50:40.821Z,78.80
2017-12-20T02:53:07.010Z,71.80
2017-12-20T02:55:33.233Z,74.13
2017-12-20T02:57:59.411Z,65.17
2017-12-20T03:00:25.603Z,77.23
2017-12-20T03:02:51.830Z,63.97
2017-12-20T03:05:18.196Z,75.37
2017-12-20T03:07:44.397Z,92.53
2017-12-20T03:10:10.861Z,86.50
2017-12-20T03:12:37.088Z,76.07
2017-12-20T03:15:03.317Z,77.80
2017-12-20T03:17:29.752Z,73.00
2017-12-20T03:19:55.973Z,70.27
2017-12-20T03:22:22.162Z,76.33
2017-12-20T03:24:48.379Z,71.67
2017-12-20T03:27:14.563Z,70.60
2017-12-20T03:29:40.764Z,68.10
2017-12-20T03:32:07.122Z,64.33
2017-12-20T03:34:33.337Z,65.07
2017-12-20T03:36:59.575Z,60.30
2017-12-20T03:39:25.792Z,72.53
2017-12-20T03:41:52.025Z,77.73
2017-12-20T03:44:18.214Z,66.00
2017-12-20T03:46:44.460Z,70.90
2017-12-20T03:49:10.710Z,63.80
2017-12-20T03:51:36.896Z,63.53
2017-12-20T03:54:03.140Z,59.80
2017-12-20T03:56:29.315Z,73.10
2017-12-20T03:58:55.620Z,76.67
2017-12-20T04:01:22.060Z,254.50
2017-12-20T04:03:48.258Z,115.03
2017-12-20T04:06:14.493Z,110.23
2017-12-20T04:08:40.725Z,139.87
2017-12-20T04:11:06.974Z,80.37
2017-12-20T04:13:33.183Z,68.53
2017-12-20T04:15:59.409Z,80.50
2017-12-20T04:18:25.591Z,74.47
2017-12-20T04:20:51.782Z,54.63
2017-12-20T04:23:18.123Z,59.73
2017-12-20T04:25:44.330Z,48.27
2017-12-20T04:28:10.791Z,58.90
2017-12-20T04:30:37.018Z,52.07
2017-12-20T04:33:03.203Z,70.77
2017-12-20T04:35:29.473Z,63.27
2017-12-20T04:37:55.705Z,48.73
2017-12-20T04:40:22.138Z,47.77
2017-12-20T04:42:48.353Z,57.53
2017-12-20T04:45:14.625Z,53.80
2017-12-20T04:47:40.969Z,51.53
2017-12-20T04:50:07.149Z,53.57
2017-12-20T04:52:33.367Z,70.10
2017-12-20T04:54:59.530Z,58.93
2017-12-20T04:57:25.711Z,57.37
2017-12-20T04:59:51.912Z,70.83
2017-12-20T05:02:18.221Z,74.00
2017-12-20T05:04:44.600Z,53.30
2017-12-20T05:07:11.055Z,63.53
2017-12-20T05:09:37.258Z,51.47
2017-12-20T05:12:03.461Z,61.67
2017-12-20T05:14:29.684Z,54.27
2017-12-20T05:16:55.981Z,61.17
2017-12-20T05:19:22.196Z,69.03
2017-12-20T05:21:48.434Z,61.23
2017-12-20T05:24:14.625Z,62.97
2017-12-20T05:26:40.798Z,63.80
2017-12-20T05:29:07.119Z,58.53
2017-12-20T05:31:33.320Z,58.63
2017-12-20T05:33:59.511Z,75.53
2017-12-20T05:36:25.746Z,68.67
2017-12-20T05:38:51.962Z,80.10
2017-12-20T05:41:18.166Z,75.80
2017-12-20T05:43:44.457Z,86.87
2017-12-20T05:46:10.689Z,94.83
2017-12-20T05:48:36.933Z,91.73
2017-12-20T05:51:03.378Z,105.93
2017-12-20T05:53:29.578Z,100.83
2017-12-20T05:55:55.770Z,101.80
2017-12-20T05:58:22.005Z,106.17
2017-12-20T06:00:48.503Z,87.83
2017-12-20T06:03:14.696Z,92.50
2017-12-20T06:05:40.896Z,75.30
2017-12-20T06:08:07.071Z,77.60
2017-12-20T06:10:33.240Z,90.07
2017-12-20T06:12:59.592Z,89.40
2017-12-20T06:15:25.860Z,88.17
2017-12-20T06:17:52.105Z,83.20
2017-12-20T06:20:18.357Z,77.83
2017-12-20T06:22:44.544Z,74.20
2017-12-20T06:25:10.742Z,104.83
2017-12-20T06:27:36.948Z,72.60
2017-12-20T06:30:03.651Z,61.80
2017-12-20T06:32:29.988Z,65.40
2017-12-20T06:34:56.203Z,67.47
2017-12-20T06:37:22.402Z,90.20
2017-12-20T06:39:48.590Z,69.67
2017-12-20T06:42:14.814Z,59.33
2017-12-20T06:44:41.008Z,66.67
2017-12-20T06:47:07.198Z,67.63
2017-12-20T06:49:33.436Z,61.40
2017-12-20T06:51:59.641Z,66.30
2017-12-20T06:54:25.828Z,74.50
2017-12-20T06:56:52.173Z,91.00
2017-12-20T06:59:18.367Z,92.33
2017-12-20T07:01:44.628Z,104.97
2017-12-20T07:04:10.838Z,111.17
2017-12-20T07:06:37.045Z,144.10
2017-12-20T07:09:03.313Z,119.57
2017-12-20T07:11:29.664Z,101.43
2017-12-20T07:13:55.975Z,91.07
2017-12-20T07:16:22.165Z,80.33
2017-12-20T07:18:48.431Z,85.17
2017-12-20T07:21:14.617Z,106.13
2017-12-20T07:23:40.887Z,92.33
2017-12-20T07:26:07.322Z,92.40
2017-12-20T07:28:33.514Z,93.90
2017-12-20T07:30:59.781Z,101.10
2017-12-20T07:33:26.028Z,89.53
2017-12-20T07:35:52.506Z,74.30
2017-12-20T07:38:18.864Z,87.03
2017-12-20T07:40:45.486Z,91.03
2017-12-20T07:43:11.744Z,115.37
2017-12-20T07:45:37.963Z,100.27
2017-12-20T07:48:04.402Z,110.33
2017-12-20T07:50:30.638Z,98.53
2017-12-20T07:52:57.068Z,90.70
2017-12-20T07:55:23.500Z,105.73
2017-12-20T07:57:49.706Z,86.23
2017-12-20T08:00:15.898Z,84.00
2017-12-20T08:02:42.149Z,96.63
2017-12-20T08:05:08.351Z,92.80
2017-12-20T08:07:34.539Z,105.17
2017-12-20T08:10:00.767Z,102.73
2017-12-20T08:12:26.948Z,93.73
2017-12-20T08:14:53.320Z,83.30
2017-12-20T08:17:19.684Z,73.53
2017-12-20T08:19:46.155Z,85.00
2017-12-20T08:22:12.339Z,76.97
2017-12-20T08:24:38.576Z,77.30
2017-12-20T08:27:04.844Z,71.07
2017-12-20T08:29:31.020Z,71.87
2017-12-20T08:31:57.260Z,84.37
2017-12-20T08:34:23.552Z,75.10
2017-12-20T08:36:49.801Z,76.23
2017-12-20T08:39:16.289Z,93.97
2017-12-20T08:41:42.484Z,88.73
2017-12-20T08:44:08.655Z,84.30
2017-12-20T08:46:34.881Z,62.53
2017-12-20T08:49:01.074Z,74.73
2017-12-20T08:51:27.247Z,66.07
2017-12-20T08:53:53.483Z,69.77
2017-12-20T08:56:19.805Z,73.33
2017-12-20T08:58:45.994Z,79.87
2017-12-20T09:01:12.207Z,76.33
2017-12-20T09:03:38.368Z,72.53
2017-12-20T09:06:04.548Z,70.57
2017-12-20T09:08:30.763Z,79.60
2017-12-20T09:10:56.933Z,80.57
2017-12-20T09:13:23.160Z,76.13
2017-12-20T09:15:49.381Z,64.73
2017-12-20T09:18:15.648Z,74.70
2017-12-20T09:20:41.844Z,61.93
2017-12-20T09:23:08.067Z,68.57
2017-12-20T09:25:34.248Z,68.17
2017-12-20T09:28:00.429Z,62.73
2017-12-20T09:30:26.637Z,59.67
2017-12-20T09:32:52.850Z,62.60
2017-12-20T09:35:19.013Z,54.33
2017-12-20T09:37:45.244Z,51.53
2017-12-20T09:40:11.425Z,63.17
2017-12-20T09:42:37.595Z,61.23
2017-12-20T09:45:03.867Z,54.30
2017-12-20T09:47:30.036Z,55.13
2017-12-20T09:49:56.244Z,63.13
2017-12-20T09:52:22.475Z,54.80
2017-12-20T09:54:48.670Z,50.73
2017-12-20T09:57:14.853Z,47.83
2017-12-20T09:59:41.067Z,48.33
2017-12-20T10:02:07.240Z,44.53
2017-12-20T10:04:33.548Z,49.73
2017-12-20T10:07:00.063Z,49.50
2017-12-20T10:09:26.271Z,48.30
2017-12-20T10:11:52.459Z,63.63
2017-12-20T10:14:18.680Z,57.77
2017-12-20T10:16:44.851Z,59.90
2017-12-20T10:19:11.041Z,51.43
2017-12-20T10:21:37.247Z,46.93
2017-12-20T10:24:03.566Z,47.37
2017-12-20T10:26:29.732Z,49.27
2017-12-20T10:28:55.948Z,56.70
2017-12-20T10:31:22.133Z,51.30
2017-12-20T10:33:48.360Z,56.10
2017-12-20T10:36:14.549Z,52.90
2017-12-20T10:38:40.735Z,53.70
2017-12-20T10:41:06.953Z,53.90
2017-12-20T10:43:33.150Z,47.23
2017-12-20T10:45:59.351Z,53.40
2017-12-20T10:48:25.595Z,47.57
2017-12-20T10:50:51.790Z,48.97
2017-12-20T10:53:17.986Z,60.63
2017-12-20T10:55:44.415Z,45.07
2017-12-20T10:58:10.615Z,54.33
2017-12-20T11:00:36.801Z,61.10
2017-12-20T11:03:03.005Z,60.30
2017-12-20T11:05:29.334Z,52.20
2017-12-20T11:07:55.515Z,54.37
2017-12-20T11:10:21.742Z,69.23
2017-12-20T11:12:47.937Z,59.40
2017-12-20T11:15:14.140Z,62.30
2017-12-20T11:17:40.350Z,65.80
2017-12-20T11:20:06.532Z,55.83
2017-12-20T11:22:32.713Z,60.60
2017-12-20T11:24:58.938Z,57.07
2017-12-20T11:27:25.130Z,48.93
2017-12-20T11:29:51.321Z,69.27
2017-12-20T11:32:17.542Z,59.53
2017-12-20T11:34:43.745Z,53.73
2017-12-20T11:37:09.946Z,51.07
2017-12-20T11:39:36.166Z,53.77
2017-12-20T11:42:02.360Z,60.60
2017-12-20T11:44:28.562Z,46.30
2017-12-20T11:46:54.832Z,45.10
2017-12-20T11:49:21.019Z,41.70
2017-12-20T11:51:47.207Z,42.73
2017-12-20T11:54:13.485Z,43.40
2017-12-20T11:56:39.666Z,48.23
2017-12-20T11:59:05.861Z,36.63
2017-12-20T12:01:32.082Z,46.63
2017-12-20T12:03:58.331Z,39.70
2017-12-20T12:06:24.523Z,44.03
2017-12-20T12:08:50.749Z,39.03
2017-12-20T12:11:16.970Z,33.30
2017-12-20T12:13:43.148Z,41.17
2017-12-20T12:16:09.363Z,33.33
2017-12-20T12:18:35.539Z,35.17
2017-12-20T12:21:01.707Z,31.57
2017-12-20T12:23:27.939Z,41.40
2017-12-20T12:25:54.119Z,35.43
2017-12-20T12:28:20.297Z,35.23
2017-12-20T12:30:46.539Z,32.57
2017-12-20T12:33:12.796Z,41.37
2017-12-20T12:35:38.982Z,37.17
2017-12-20T12:38:05.169Z,40.90
2017-12-20T12:40:31.378Z,35.87
2017-12-20T12:42:57.553Z,35.70
2017-12-20T12:45:23.731Z,27.70
2017-12-20T12:47:49.931Z,38.03
2017-12-20T12:50:16.140Z,36.93
2017-12-20T12:52:42.343Z,40.57
2017-12-20T12:55:08.553Z,37.10
2017-12-20T12:57:34.751Z,38.43
2017-12-20T13:00:00.926Z,39.53
2017-12-20T13:02:27.158Z,34.50
2017-12-20T13:04:53.322Z,33.40
2017-12-20T13:07:19.511Z,53.17
2017-12-20T13:09:45.824Z,44.03
2017-12-20T13:12:12.010Z,33.43
2017-12-20T13:14:38.201Z,35.20
2017-12-20T13:17:04.422Z,50.07
2017-12-20T13:19:30.782Z,46.37
2017-12-20T13:21:57.012Z,46.20
2017-12-20T13:24:23.620Z,48.20
2017-12-20T13:26:49.863Z,55.80
2017-12-20T13:29:16.061Z,41.47
2017-12-20T13:31:42.520Z,41.67
2017-12-20T13:34:08.698Z,41.07
2017-12-20T13:36:34.973Z,40.97
2017-12-20T13:39:01.233Z,39.20
2017-12-20T13:41:27.437Z,45.50
2017-12-20T13:43:53.632Z,46.97
2017-12-20T13:46:19.869Z,39.00
2017-12-20T13:48:46.043Z,37.30
2017-12-20T13:51:12.345Z,39.27
2017-12-20T13:53:38.597Z,59.93
2017-12-20T13:56:04.827Z,49.30
2017-12-20T13:58:31.025Z,45.43
2017-12-20T14:00:57.292Z,39.10
2017-12-20T14:03:23.480Z,47.80
2017-12-20T14:05:49.673Z,42.30
2017-12-20T14:08:15.882Z,58.30
2017-12-20T14:10:42.074Z,98.93
2017-12-20T14:13:08.297Z,70.90
2017-12-20T14:15:34.536Z,66.50
2017-12-20T14:18:00.713Z,68.30
2017-12-20T14:20:26.908Z,57.37
2017-12-20T14:22:53.172Z,48.90
2017-12-20T14:25:19.358Z,59.53
2017-12-20T14:27:45.562Z,73.10
2017-12-20T14:30:11.805Z,103.87
2017-12-20T14:32:38.006Z,107.65
2017-12-20T14:35:04.191Z,110.60
2017-12-20T14:37:30.699Z,111.20
2017-12-20T14:39:56.871Z,91.80
2017-12-20T14:42:23.378Z,86.43
2017-12-20T14:44:49.570Z,75.57
2017-12-20T14:47:15.725Z,81.93
2017-12-20T14:49:41.902Z,91.50
2017-12-20T14:52:08.124Z,106.77
2017-12-20T14:54:34.293Z,92.70
2017-12-20T14:57:00.549Z,149.97
2017-12-20T14:59:26.808Z,103.40
2017-12-20T15:01:53.004Z,116.67
2017-12-20T15:04:19.233Z,113.60
2017-12-20T15:06:45.495Z,86.63
2017-12-20T15:09:11.880Z,85.50
2017-12-20T15:11:38.073Z,94.70
2017-12-20T15:14:04.339Z,87.03
2017-12-20T15:16:30.577Z,98.83
2017-12-20T15:18:56.784Z,96.30
2017-12-20T15:21:23.002Z,91.13
2017-12-20T15:23:49.262Z,100.97
2017-12-20T15:26:15.695Z,87.50
2017-12-20T15:28:41.912Z,92.50
2017-12-20T15:31:08.151Z,85.50
2017-12-20T15:33:34.331Z,108.53
2017-12-20T15:36:00.543Z,113.62
2017-12-20T15:38:26.710Z,112.23
2017-12-20T15:40:52.911Z,106.33
2017-12-20T15:43:19.137Z,108.07
2017-12-20T15:45:45.601Z,103.33
2017-12-20T15:48:11.787Z,110.17
2017-12-20T15:50:38.018Z,154.47
2017-12-20T15:53:04.403Z,131.40
2017-12-20T15:55:30.593Z,110.97
2017-12-20T15:57:56.767Z,80.60
2017-12-20T16:00:23.091Z,76.90
2017-12-20T16:02:49.331Z,75.97
2017-12-20T16:05:15.953Z,73.43
2017-12-20T16:07:42.173Z,93.00
2017-12-20T16:10:08.369Z,103.27
2017-12-20T16:12:34.584Z,73.60
2017-12-20T16:15:00.796Z,79.03
2017-12-20T16:17:27.103Z,97.77
2017-12-20T16:19:53.320Z,95.97
2017-12-20T16:22:19.569Z,77.33
2017-12-20T16:24:45.756Z,83.25
2017-12-20T16:27:12.064Z,79.80
2017-12-20T16:29:38.258Z,75.43
2017-12-20T16:32:04.546Z,129.53
2017-12-20T16:34:30.914Z,104.73
2017-12-20T16:36:57.140Z,82.10
2017-12-20T16:39:23.341Z,58.00
2017-12-20T16:41:49.556Z,57.83
2017-12-20T16:44:15.725Z,57.67
2017-12-20T16:46:41.900Z,52.63
2017-12-20T16:49:08.141Z,61.67
2017-12-20T16:51:34.327Z,71.37
2017-12-20T16:54:00.542Z,74.27
2017-12-20T16:56:26.867Z,76.80
2017-12-20T16:58:53.204Z,68.80
2017-12-20T17:01:19.375Z,73.80
2017-12-20T17:03:45.583Z,64.33
2017-12-20T17:06:11.883Z,85.27
2017-12-20T17:08:38.107Z,104.63
2017-12-20T17:11:04.326Z,78.80
2017-12-20T17:13:30.520Z,94.53
2017-12-20T17:15:56.740Z,84.97
2017-12-20T17:18:22.966Z,75.27
2017-12-20T17:20:49.161Z,76.30
2017-12-20T17:23:15.362Z,70.77
2017-12-20T17:25:41.567Z,77.53
2017-12-20T17:28:07.743Z,68.40
2017-12-20T17:30:33.912Z,88.70
2017-12-20T17:33:00.193Z,80.80
2017-12-20T17:35:26.637Z,79.60
2017-12-20T17:37:52.809Z,136.20
2017-12-20T17:40:19.021Z,95.80
2017-12-20T17:42:45.279Z,99.80
2017-12-20T17:45:11.471Z,99.70
2017-12-20T17:47:37.677Z,101.17
2017-12-20T17:50:03.872Z,95.33
2017-12-20T17:52:30.045Z,94.00
2017-12-20T17:54:56.282Z,198.47
2017-12-20T17:57:22.617Z,189.33
2017-12-20T17:59:48.810Z,116.87
2017-12-20T18:02:15.031Z,60.07
2017-12-20T18:04:41.323Z,44.47
2017-12-20T18:07:07.509Z,48.97
2017-12-20T18:09:33.750Z,41.63
2017-12-20T18:11:59.936Z,50.63
2017-12-20T18:14:26.467Z,54.30
2017-12-20T18:16:52.730Z,47.73
2017-12-20T18:19:18.956Z,51.53
2017-12-20T18:21:45.135Z,48.70
2017-12-20T18:24:11.352Z,50.40
2017-12-20T18:26:37.647Z,57.90
2017-12-20T18:29:03.822Z,40.97
2017-12-20T18:31:30.046Z,54.77
2017-12-20T18:33:56.304Z,42.80
2017-12-20T18:36:22.478Z,46.53
2017-12-20T18:38:48.710Z,44.30
2017-12-20T18:41:14.908Z,51.10
2017-12-20T18:43:41.224Z,53.30
2017-12-20T18:46:07.467Z,52.20
2017-12-20T18:48:33.648Z,50.80
2017-12-20T18:50:59.909Z,51.60
2017-12-20T18:53:26.145Z,45.93
2017-12-20T18:55:52.386Z,50.13
2017-12-20T18:58:18.574Z,52.13
2017-12-20T19:00:45.048Z,46.57
2017-12-20T19:03:11.277Z,56.10
2017-12-20T19:05:37.473Z,49.77
2017-12-20T19:08:03.694Z,45.53
2017-12-20T19:10:29.860Z,48.70
2017-12-20T19:12:56.169Z,54.30
2017-12-20T19:15:22.382Z,52.53
2017-12-20T19:17:48.571Z,37.23
2017-12-20T19:20:14.760Z,40.80
2017-12-20T19:22:41.253Z,39.60
2017-12-20T19:25:07.700Z,37.73
2017-12-20T19:27:33.880Z,43.23
2017-12-20T19:30:00.198Z,45.63
2017-12-20T19:32:26.451Z,39.57
2017-12-20T19:34:52.637Z,56.73
2017-12-20T19:37:19.093Z,84.20
2017-12-20T19:39:45.302Z,57.23
2017-12-20T19:42:11.519Z,73.00
2017-12-20T19:44:37.723Z,42.50
2017-12-20T19:47:03.990Z,66.53
2017-12-20T19:49:30.160Z,53.67
2017-12-20T19:51:56.377Z,50.53
2017-12-20T19:54:22.555Z,67.40
2017-12-20T19:56:48.747Z,47.93
2017-12-20T19:59:14.950Z,45.20
2017-12-20T20:01:41.113Z,44.50
2017-12-20T20:04:07.406Z,60.60
2017-12-20T20:06:33.626Z,59.47
2017-12-20T20:08:59.853Z,45.00
2017-12-20T20:11:26.071Z,42.53
2017-12-20T20:13:52.317Z,41.70
2017-12-20T20:16:18.669Z,36.00
2017-12-20T20:18:45.014Z,46.63
2017-12-20T20:21:11.415Z,40.87
2017-12-20T20:23:37.598Z,42.03
2017-12-20T20:26:03.868Z,51.17
2017-12-20T20:28:30.100Z,44.30
2017-12-20T20:30:56.300Z,51.53
2017-12-20T20:33:22.475Z,54.90
2017-12-20T20:35:48.764Z,56.63
2017-12-20T20:38:14.983Z,68.43
2017-12-20T20:40:41.163Z,66.63
2017-12-20T20:43:07.475Z,75.40
2017-12-20T20:45:33.687Z,76.20
2017-12-20T20:47:59.848Z,51.70
2017-12-20T20:50:26.137Z,46.03
2017-12-20T20:52:52.335Z,46.30
2017-12-20T20:55:18.501Z,52.37
2017-12-20T20:57:44.701Z,42.27
2017-12-20T21:00:10.883Z,38.43
2017-12-20T21:02:37.078Z,43.83
2017-12-20T21:05:03.516Z,41.43
2017-12-20T21:07:29.690Z,39.70
2017-12-20T21:09:55.866Z,40.67
2017-12-20T21:12:22.095Z,41.95
2017-12-20T21:14:48.269Z,37.10
2017-12-20T21:17:14.503Z,41.85
2017-12-20T21:19:40.889Z,40.30
2017-12-20T21:22:07.112Z,38.73
2017-12-20T21:24:33.786Z,43.23
2017-12-20T21:27:00.195Z,38.20
2017-12-20T21:29:26.356Z,52.90
2017-12-20T21:31:52.548Z,52.13
2017-12-20T21:34:18.766Z,44.40
2017-12-20T21:36:45.075Z,44.20
2017-12-20T21:39:11.347Z,42.93
2017-12-20T21:41:37.545Z,47.13
2017-12-20T21:44:03.803Z,47.00
2017-12-20T21:46:29.980Z,41.10
2017-12-20T21:48:56.256Z,36.63
2017-12-20T21:51:22.445Z,43.63
2017-12-20T21:53:48.620Z,48.50
2017-12-20T21:56:14.927Z,46.23
2017-12-20T21:58:41.177Z,46.47
2017-12-20T22:01:07.377Z,58.33
2017-12-20T22:03:33.603Z,45.33
2017-12-20T22:05:59.858Z,45.57
2017-12-20T22:08:26.087Z,44.20
2017-12-20T22:10:52.291Z,48.13
2017-12-20T22:13:18.526Z,43.83
2017-12-20T22:15:44.712Z,49.37
2017-12-20T22:18:10.942Z,46.72
2017-12-20T22:20:37.400Z,54.80
2017-12-20T22:23:03.664Z,36.00
2017-12-20T22:25:29.902Z,49.40
2017-12-20T22:27:56.082Z,56.80
2017-12-20T22:30:22.555Z,42.97
2017-12-20T22:32:48.752Z,60.73
2017-12-20T22:35:14.988Z,57.67
2017-12-20T22:37:41.206Z,43.13
2017-12-20T22:40:07.429Z,38.53
2017-12-20T22:42:33.601Z,41.00
2017-12-20T22:44:59.842Z,42.60
2017-12-20T22:47:26.056Z,35.20
2017-12-20T22:49:52.278Z,41.58
2017-12-20T22:52:18.461Z,43.13
2017-12-20T22:54:44.670Z,39.97
2017-12-20T22:57:11.058Z,51.47
2017-12-20T22:59:37.274Z,45.80
2017-12-20T23:02:03.507Z,41.87
2017-12-20T23:04:29.725Z,40.73
2017-12-20T23:06:55.905Z,45.23
2017-12-20T23:09:22.123Z,40.80
2017-12-20T23:11:48.293Z,36.17
2017-12-20T23:14:14.668Z,34.27
2017-12-20T23:16:40.886Z,36.23
2017-12-20T23:19:07.083Z,41.13
2017-12-20T23:21:33.351Z,61.07
2017-12-20T23:23:59.565Z,41.03
2017-12-20T23:26:25.787Z,34.57
2017-12-20T23:28:52.067Z,40.25
2017-12-20T23:31:18.679Z,39.37
2017-12-20T23:33:44.900Z,37.30
2017-12-20T23:36:11.081Z,41.83
2017-12-20T23:38:37.370Z,44.90
2017-12-20T23:41:03.975Z,40.57
2017-12-20T23:43:30.221Z,47.47
2017-12-20T23:45:56.439Z,49.20
2017-12-20T23:48:22.871Z,33.63
2017-12-20T23:50:49.106Z,43.00
2017-12-20T23:53:15.336Z,41.33
2017-12-20T23:55:41.579Z,36.73
2017-12-20T23:58:07.772Z,33.40
